Stations météo

réclame
Mon MeteoGroup
Puebla De D. Rodrigo, Espagne (8271): Température de l'air & dewpoint: 16.06.2018 19:00:00 - 22.06.2018 19:00:00 (CEST)Puebla De D. Rodrigo, Espagne (8271): Vitesse du vent & gusts: 16.06.2018 19:00:00 - 22.06.2018 19:00:00 (CEST)Puebla De D. Rodrigo, Espagne (8271): Direction du vent: 16.06.2018 19:00:00 - 22.06.2018 19:00:00 (CEST)Puebla De D. Rodrigo, Espagne (8271): reduced air pressure: 16.06.2018 19:00:00 - 22.06.2018 19:00:00 (CEST)Puebla De D. Rodrigo, Espagne (8271): Quantités de précipitations: 16.06.2018 19:00:00 - 22.06.2018 19:00:00 (CEST)
Date & Time tt [°C] td [°C] ff [km/h] ff [knt] fx [km/h] fx [knt] dd ppp [hPa] rr [mm]
22.06.2018 19:00:00 - - - - - - - - -
22.06.2018 18:00:00 34,2 13,7 6 3 25 14 ESE 1006,3 0,0
22.06.2018 17:00:00 34,1 13,6 10 6 24 13 SSE 1006,7 0,0
22.06.2018 16:00:00 33,9 14,4 11 6 21 12 ENE 1007,1 0,0
22.06.2018 15:00:00 33,2 14,8 11 6 26 14 SSE 1007,9 0,0
22.06.2018 14:00:00 30,1 13,4 8 5 18 10 E 1009,1 -
22.06.2018 13:00:00 31,1 15,9 2 1 13 7 WSW 1009,6 0,0
22.06.2018 12:00:00 29,3 16,5 5 3 15 8 ESE 1010,2 0,0
22.06.2018 11:00:00 26,3 16,6 4 2 15 8 NE 1011,1 0,0
22.06.2018 10:00:00 23,9 16,1 6 3 15 8 SW 1011,9 0,0
22.06.2018 09:00:00 23,2 14,5 4 2 9 5 NE 1011,9 0,0
22.06.2018 08:00:00 19,8 13,1 3 2 10 6 SE 1011,8 -
22.06.2018 07:00:00 19,2 13,6 0 0 8 4 N 1011,8 0,0
22.06.2018 06:00:00 20,4 12,8 4 2 20 11 S 1011,2 0,0
22.06.2018 05:00:00 21,7 10,8 3 2 11 6 ENE 1010,5 0,0
22.06.2018 04:00:00 21,5 8,8 5 3 14 8 E 1010,0 0,0
22.06.2018 03:00:00 23,4 9,0 8 5 13 7 SSE 1009,5 0,0
22.06.2018 02:00:00 23,7 9,3 5 3 11 6 ESE 1009,6 -
22.06.2018 01:00:00 25,3 9,6 8 4 13 7 E 1009,4 0,0
22.06.2018 00:00:00 26,1 9,8 9 5 14 7 E 1008,9 0,0
21.06.2018 23:00:00 28,6 11,7 6 3 10 6 SSE 1008,3 0,0
21.06.2018 22:00:00 29,2 11,7 1 1 10 6 SE 1007,3 0,0
21.06.2018 21:00:00 30,8 11,7 4 2 15 8 SE 1006,6 0,0
21.06.2018 20:00:00 32,6 12,2 9 5 22 12 SE 1006,2 -
21.06.2018 19:00:00 34,0 13,0 7 4 32 17 E 1005,9 0,0
21.06.2018 18:00:00 33,5 12,5 8 4 27 14 SSE 1006,5 0,0
21.06.2018 17:00:00 33,0 12,1 14 8 27 15 E 1007,1 0,0
21.06.2018 16:00:00 33,8 13,3 8 4 29 16 NE 1007,6 0,0
21.06.2018 15:00:00 32,4 16,2 6 4 26 14 NE 1008,0 0,0
21.06.2018 14:00:00 31,7 17,2 3 1 22 12 NE 1008,7 -
21.06.2018 13:00:00 31,5 17,4 4 2 12 7 NNE 1009,6 0,0
21.06.2018 12:00:00 29,3 16,1 3 2 13 7 N 1010,1 0,0
21.06.2018 11:00:00 27,6 15,6 5 3 15 8 N 1010,7 0,0
21.06.2018 10:00:00 25,0 13,9 6 3 13 7 E 1011,6 0,0
21.06.2018 09:00:00 22,5 13,3 2 1 7 4 ENE 1012,0 0,0
21.06.2018 08:00:00 19,0 11,3 2 1 6 3 S 1012,0 -
21.06.2018 07:00:00 18,3 10,9 0 0 8 4 NE 1011,5 0,0
21.06.2018 06:00:00 19,1 11,1 5 3 11 6 NE 1010,6 0,0
21.06.2018 05:00:00 20,4 11,1 3 2 9 5 E 1010,1 0,0
21.06.2018 04:00:00 20,6 11,0 0 0 0 0 N 1009,6 0,0
21.06.2018 03:00:00 21,6 10,8 1 0 4 2 SE 1009,9 0,0
21.06.2018 02:00:00 23,7 11,3 0 0 7 4 N 1009,6 -
21.06.2018 01:00:00 23,5 10,9 6 4 17 9 NNE 1009,6 0,0
21.06.2018 00:00:00 26,3 12,0 10 5 17 9 E 1008,8 0,0
20.06.2018 23:00:00 25,4 12,2 6 3 10 6 E 1008,8 0,0
20.06.2018 22:00:00 27,6 12,0 2 1 7 4 ENE 1007,2 0,0
20.06.2018 21:00:00 29,8 12,2 1 1 10 5 E 1006,7 0,0
20.06.2018 20:00:00 32,2 12,4 5 3 18 10 E 1006,3 -
20.06.2018 19:00:00 33,8 12,7 11 6 19 10 E 1005,6 0,0
20.06.2018 18:00:00 33,7 13,2 9 5 18 10 ENE 1006,3 0,0
20.06.2018 17:00:00 35,3 14,5 4 2 24 13 W 1006,6 0,0
20.06.2018 16:00:00 34,4 14,8 3 2 18 10 SSW 1007,3 0,0
20.06.2018 15:00:00 32,7 14,3 6 4 18 10 ESE 1008,2 0,0
20.06.2018 14:00:00 32,9 15,0 1 1 14 7 E 1009,1 -
20.06.2018 13:00:00 31,2 14,3 3 1 15 8 NNW 1010,0 0,0
20.06.2018 12:00:00 29,9 13,7 4 2 21 12 N 1010,6 0,0
20.06.2018 11:00:00 28,0 13,9 4 2 11 6 NNE 1011,2 0,0
20.06.2018 10:00:00 25,2 13,8 4 2 9 5 E 1011,8 0,0
20.06.2018 09:00:00 21,7 13,9 4 2 14 8 E 1012,3 0,0
20.06.2018 08:00:00 19,1 13,3 1 0 3 2 ESE 1012,6 -
20.06.2018 07:00:00 16,7 12,4 2 1 4 2 SW 1012,5 0,0
20.06.2018 06:00:00 16,6 11,6 1 1 6 3 N 1011,9 0,0
20.06.2018 05:00:00 17,9 11,4 0 0 8 4 N 1011,6 0,0
20.06.2018 04:00:00 19,7 11,2 1 1 10 6 W 1011,4 0,0
20.06.2018 03:00:00 21,4 11,4 0 0 5 3 N 1011,0 0,0
20.06.2018 02:00:00 22,5 11,6 1 1 5 3 NNE 1010,7 -
20.06.2018 01:00:00 24,9 11,4 1 0 14 8 WSW 1010,4 0,0
20.06.2018 00:00:00 24,7 12,0 2 1 11 6 WSW 1009,9 0,0
19.06.2018 23:00:00 25,4 11,2 7 4 12 7 SW 1009,4 0,0
19.06.2018 22:00:00 28,3 10,9 8 4 10 6 WSW 1008,3 0,0
19.06.2018 21:00:00 30,0 11,0 6 3 11 6 SW 1008,1 0,0
19.06.2018 20:00:00 32,6 11,7 2 1 12 7 SSW 1007,7 -
19.06.2018 19:00:00 32,7 12,3 1 1 19 11 S 1007,8 0,0
19.06.2018 18:00:00 33,6 12,5 7 4 16 8 NNE 1007,7 0,0
19.06.2018 17:00:00 34,0 13,0 9 5 22 12 S 1008,3 0,0
19.06.2018 16:00:00 33,3 12,8 5 3 20 11 ESE 1009,0 0,0
19.06.2018 15:00:00 32,7 13,4 6 3 21 12 S 1009,4 0,0
19.06.2018 14:00:00 31,8 14,0 6 3 21 12 SSW 1010,1 -
19.06.2018 13:00:00 30,7 15,2 8 4 19 10 SW 1010,8 0,0
19.06.2018 12:00:00 28,3 14,1 12 6 21 12 SSW 1011,7 0,0
19.06.2018 11:00:00 26,7 14,1 5 3 14 7 E 1012,4 0,0
19.06.2018 10:00:00 23,7 13,0 6 3 11 6 E 1013,4 0,0
19.06.2018 09:00:00 20,4 10,8 3 2 8 5 E 1013,9 0,0
19.06.2018 08:00:00 18,4 10,8 3 2 6 3 E 1014,1 -
19.06.2018 07:00:00 14,5 9,0 0 0 1 1 SE 1014,2 0,0
19.06.2018 06:00:00 14,7 8,4 0 0 0 0 N 1013,9 0,0
19.06.2018 05:00:00 17,3 7,8 0 0 6 3 N 1012,9 0,0
19.06.2018 04:00:00 19,7 7,4 4 2 8 4 SW 1012,5 0,0
19.06.2018 03:00:00 20,7 7,0 1 1 10 5 N 1012,4 0,0
19.06.2018 02:00:00 24,1 6,8 3 2 8 4 W 1011,6 -
19.06.2018 01:00:00 24,5 7,1 3 1 14 8 ENE 1011,8 0,0
19.06.2018 00:00:00 25,9 6,5 6 4 16 9 E 1011,9 0,0
18.06.2018 23:00:00 26,3 6,8 5 3 11 6 WSW 1011,5 0,0
18.06.2018 22:00:00 26,8 7,3 4 2 14 8 NE 1010,7 0,0
18.06.2018 21:00:00 29,2 8,8 9 5 19 11 NNE 1010,0 0,0
18.06.2018 20:00:00 31,2 8,8 9 5 24 13 NNE 1009,7 -
18.06.2018 19:00:00 32,3 9,8 8 5 22 12 N 1009,4 0,0
18.06.2018 18:00:00 32,7 10,6 12 6 28 15 ENE 1009,8 0,0
18.06.2018 17:00:00 33,5 11,3 8 4 25 13 ENE 1010,2 0,0
18.06.2018 16:00:00 32,8 11,3 14 7 32 17 ENE 1010,9 0,0
18.06.2018 15:00:00 32,0 11,2 17 9 34 19 E 1011,5 0,0
18.06.2018 14:00:00 31,4 11,2 16 9 36 19 ENE 1012,2 -
18.06.2018 13:00:00 30,8 11,7 16 9 33 18 E 1012,6 0,0
18.06.2018 12:00:00 30,0 12,0 17 9 28 15 ENE 1012,7 0,0
18.06.2018 11:00:00 28,4 12,3 12 6 21 11 E 1013,5 0,0
18.06.2018 10:00:00 26,0 11,7 4 2 10 5 E 1014,2 0,0
18.06.2018 09:00:00 23,7 10,8 4 2 9 5 ESE 1014,7 0,0
18.06.2018 08:00:00 20,1 9,9 0 0 7 4 SSE 1015,3 -
18.06.2018 07:00:00 17,5 6,7 4 2 5 3 SW 1015,1 0,0
18.06.2018 06:00:00 20,1 6,1 0 0 7 4 SW 1014,5 0,0
18.06.2018 05:00:00 21,6 5,5 4 2 14 8 NNE 1014,2 0,0
18.06.2018 04:00:00 24,0 6,7 3 2 20 11 S 1013,6 0,0
18.06.2018 03:00:00 23,9 7,1 3 2 17 9 ENE 1013,5 0,0
18.06.2018 02:00:00 24,9 8,4 2 1 12 6 N 1013,7 -
18.06.2018 01:00:00 25,3 8,3 2 1 23 12 NNE 1013,2 0,0
18.06.2018 00:00:00 26,9 8,8 3 1 18 10 SSE 1013,0 0,0
17.06.2018 23:00:00 27,2 9,6 6 4 14 8 N 1012,4 0,0
17.06.2018 22:00:00 28,4 10,5 4 2 15 8 ENE 1011,5 0,0
17.06.2018 21:00:00 30,0 11,4 11 6 21 11 ENE 1010,7 0,0
17.06.2018 20:00:00 31,8 12,5 7 4 13 7 NNE 1009,8 -
17.06.2018 19:00:00 33,3 12,3 7 4 15 8 NE 1009,3 0,0
17.06.2018 18:00:00 34,0 13,0 8 5 19 11 ENE 1009,3 0,0
17.06.2018 17:00:00 33,7 13,2 7 4 20 11 NE 1009,7 0,0
17.06.2018 16:00:00 35,6 13,8 3 2 19 11 W 1009,4 0,0
17.06.2018 15:00:00 34,1 13,0 7 4 23 12 E 1010,0 0,0
17.06.2018 14:00:00 33,3 12,8 7 4 18 10 SSW 1010,5 -
17.06.2018 13:00:00 32,0 13,8 5 3 16 9 ESE 1011,1 0,1
17.06.2018 12:00:00 29,8 14,3 4 2 17 9 E 1011,4 0,0
17.06.2018 11:00:00 27,6 14,2 6 3 14 8 E 1011,6 0,0
17.06.2018 10:00:00 24,9 14,0 5 3 12 7 E 1012,2 0,1
17.06.2018 09:00:00 20,6 12,3 4 2 10 5 E 1012,8 0,0
17.06.2018 08:00:00 19,1 11,9 2 1 5 3 ENE 1012,4 -
17.06.2018 07:00:00 15,5 9,4 2 1 4 2 NNE 1012,5 0,0
17.06.2018 06:00:00 17,3 9,2 0 0 10 5 E 1012,1 0,0
17.06.2018 05:00:00 20,0 9,3 1 1 6 4 SW 1011,2 0,0
17.06.2018 04:00:00 22,1 7,8 0 0 8 4 S 1010,4 0,0
17.06.2018 03:00:00 23,6 8,4 3 1 7 4 SSW 1010,0 0,0
17.06.2018 02:00:00 24,0 8,8 2 1 13 7 ENE 1009,9 -
17.06.2018 01:00:00 25,0 8,9 3 2 24 13 ENE 1009,1 0,0
17.06.2018 00:00:00 25,8 9,2 5 3 17 9 ENE 1008,7 0,0
16.06.2018 23:00:00 26,8 11,3 1 0 11 6 WSW 1007,7 0,0
16.06.2018 22:00:00 27,6 12,0 1 1 10 5 SE 1006,6 0,0
16.06.2018 21:00:00 28,9 12,3 5 3 13 7 NE 1006,1 0,0
16.06.2018 20:00:00 29,8 11,3 8 5 20 11 NNE 1005,7 -
16.06.2018 19:00:00 34,3 12,6 3 2 14 8 WNW 1004,7 0,0

tt = Température de l'air
td = dewpoint
ff = Vitesse du vent
fx = gusts
dd = Direction du vent
ppp = reduced air pressure
rr = Quantités de précipitations

stations d'obs. à proximité